createdAt,value
2023-08-20T00:01:36.633Z,34.69
2023-08-20T00:04:03.115Z,34.65
2023-08-20T00:06:29.596Z,34.63
2023-08-20T00:08:56.010Z,34.59
2023-08-20T00:11:22.454Z,34.55
2023-08-20T00:13:48.900Z,34.53
2023-08-20T00:16:15.372Z,34.49
2023-08-20T00:18:41.922Z,34.46
2023-08-20T00:21:08.333Z,34.43
2023-08-20T00:23:34.743Z,34.40
2023-08-20T00:26:01.240Z,34.36
2023-08-20T00:28:27.744Z,34.34
2023-08-20T00:30:54.248Z,34.30
2023-08-20T00:33:20.666Z,34.20
2023-08-20T00:35:47.051Z,34.21
2023-08-20T00:38:13.852Z,34.14
2023-08-20T00:40:40.286Z,34.35
2023-08-20T00:43:06.693Z,34.27
2023-08-20T00:45:34.442Z,34.45
2023-08-20T00:48:00.914Z,34.29
2023-08-20T00:50:27.521Z,34.26
2023-08-20T00:52:55.822Z,34.06
2023-08-20T00:55:22.228Z,34.03
2023-08-20T00:57:48.662Z,34.00
2023-08-20T01:00:15.073Z,33.96
2023-08-20T01:02:41.536Z,34.24
2023-08-20T01:05:07.959Z,34.18
2023-08-20T01:07:34.665Z,34.07
2023-08-20T01:10:01.295Z,34.05
2023-08-20T01:12:27.770Z,34.04
2023-08-20T01:14:54.213Z,33.86
2023-08-20T01:17:20.625Z,33.80
2023-08-20T01:19:47.056Z,33.78
2023-08-20T01:22:14.486Z,33.74
2023-08-20T01:24:40.908Z,33.72
2023-08-20T01:27:07.342Z,33.67
2023-08-20T01:29:33.784Z,33.64
2023-08-20T01:32:00.170Z,33.60
2023-08-20T01:34:26.605Z,33.57
2023-08-20T01:36:53.048Z,33.53
2023-08-20T01:39:19.475Z,33.51
2023-08-20T01:41:45.901Z,33.48
2023-08-20T01:44:12.310Z,33.48
2023-08-20T01:46:38.773Z,33.45
2023-08-20T01:49:05.243Z,33.41
2023-08-20T01:51:31.647Z,33.35
2023-08-20T01:53:58.109Z,33.34
2023-08-20T01:56:24.579Z,33.31
2023-08-20T01:58:51.735Z,33.29
2023-08-20T02:01:18.201Z,33.26
2023-08-20T02:03:44.681Z,33.19
2023-08-20T02:06:11.084Z,33.18
2023-08-20T02:08:37.488Z,33.15
2023-08-20T02:11:03.931Z,33.08
2023-08-20T02:13:30.359Z,33.04
2023-08-20T02:15:56.851Z,33.06
2023-08-20T02:18:23.254Z,33.03
2023-08-20T02:20:49.757Z,33.02
2023-08-20T02:23:16.197Z,32.95
2023-08-20T02:25:42.796Z,32.94
2023-08-20T02:28:09.197Z,32.92
2023-08-20T02:30:35.643Z,32.92
2023-08-20T02:33:02.056Z,32.89
2023-08-20T02:35:28.528Z,32.81
2023-08-20T02:37:54.917Z,32.78
2023-08-20T02:40:21.332Z,32.75
2023-08-20T02:42:47.749Z,32.73
2023-08-20T02:45:14.184Z,32.71
2023-08-20T02:47:40.626Z,32.68
2023-08-20T02:50:07.047Z,32.65
2023-08-20T02:52:33.606Z,32.62
2023-08-20T02:55:00.040Z,32.60
2023-08-20T02:57:26.518Z,32.59
2023-08-20T02:59:52.933Z,32.55
2023-08-20T03:02:19.408Z,32.53
2023-08-20T03:04:45.872Z,32.50
2023-08-20T03:07:12.320Z,32.48
2023-08-20T03:09:38.816Z,32.44
2023-08-20T03:12:05.244Z,32.44
2023-08-20T03:14:31.658Z,32.43
2023-08-20T03:16:58.105Z,32.39
2023-08-20T03:19:24.577Z,32.36
2023-08-20T03:21:50.973Z,32.32
2023-08-20T03:24:17.395Z,32.29
2023-08-20T03:26:43.820Z,32.27
2023-08-20T03:29:10.332Z,32.25
2023-08-20T03:31:38.286Z,32.22
2023-08-20T03:34:04.791Z,32.20
2023-08-20T03:36:31.204Z,32.17
2023-08-20T03:38:57.594Z,32.15
2023-08-20T03:41:24.007Z,32.13
2023-08-20T03:43:50.507Z,32.08
2023-08-20T03:46:17.057Z,32.08
2023-08-20T03:48:43.945Z,32.09
2023-08-20T03:51:10.406Z,32.09
2023-08-20T03:53:37.650Z,32.10
2023-08-20T03:56:04.087Z,32.10
2023-08-20T03:58:32.635Z,31.90
2023-08-20T04:01:01.761Z,32.05
2023-08-20T04:03:28.230Z,32.02
2023-08-20T04:05:54.656Z,31.92
2023-08-20T04:08:21.023Z,31.89
2023-08-20T04:10:47.425Z,31.86
2023-08-20T04:13:13.868Z,31.81
2023-08-20T04:15:40.453Z,31.79
2023-08-20T04:18:08.207Z,31.76
2023-08-20T04:20:34.686Z,31.74
2023-08-20T04:23:02.633Z,31.72
2023-08-20T04:25:29.045Z,31.68
2023-08-20T04:27:55.867Z,31.66
2023-08-20T04:30:22.829Z,31.65
2023-08-20T04:32:49.323Z,31.62
2023-08-20T04:35:16.100Z,31.61
2023-08-20T04:37:43.149Z,31.58
2023-08-20T04:40:09.604Z,31.59
2023-08-20T04:42:36.076Z,31.59
2023-08-20T04:45:02.548Z,31.60
2023-08-20T04:47:29.991Z,31.59
2023-08-20T04:49:56.875Z,31.65
2023-08-20T04:52:23.395Z,31.59
2023-08-20T04:54:50.039Z,31.58
2023-08-20T04:57:18.161Z,31.59
2023-08-20T04:59:44.658Z,31.54
2023-08-20T05:02:16.884Z,31.53
2023-08-20T05:04:52.318Z,31.50
2023-08-20T05:07:18.858Z,31.48
2023-08-20T05:09:45.305Z,31.46
2023-08-20T05:12:11.730Z,31.47
2023-08-20T05:14:38.324Z,31.46
2023-08-20T05:17:04.827Z,31.46
2023-08-20T05:19:31.236Z,31.45
2023-08-20T05:21:57.937Z,31.47
2023-08-20T05:24:24.385Z,31.47
2023-08-20T05:26:51.484Z,31.48
2023-08-20T05:29:17.902Z,31.47
2023-08-20T05:31:44.322Z,31.48
2023-08-20T05:34:10.776Z,31.50
2023-08-20T05:36:37.360Z,31.50
2023-08-20T05:39:03.795Z,31.53
2023-08-20T05:41:30.273Z,31.54
2023-08-20T05:43:56.740Z,31.56
2023-08-20T05:46:23.249Z,31.57
2023-08-20T05:48:49.792Z,31.58
2023-08-20T05:51:16.254Z,31.60
2023-08-20T05:53:42.671Z,31.64
2023-08-20T05:56:09.164Z,31.64
2023-08-20T05:58:36.180Z,31.67
2023-08-20T06:01:02.613Z,31.71
2023-08-20T06:03:29.760Z,31.70
2023-08-20T06:05:56.193Z,31.73
2023-08-20T06:08:22.611Z,31.76
2023-08-20T06:10:49.006Z,31.83
2023-08-20T06:13:15.419Z,31.82
2023-08-20T06:15:41.811Z,31.84
2023-08-20T06:18:08.287Z,31.89
2023-08-20T06:20:34.785Z,31.93
2023-08-20T06:23:01.241Z,31.97
2023-08-20T06:25:27.680Z,31.99
2023-08-20T06:27:54.314Z,32.02
2023-08-20T06:30:20.753Z,32.05
2023-08-20T06:32:47.235Z,32.08
2023-08-20T06:35:13.653Z,32.12
2023-08-20T06:37:40.076Z,32.12
2023-08-20T06:40:06.507Z,32.11
2023-08-20T06:42:32.931Z,31.94
2023-08-20T06:44:59.382Z,31.90
2023-08-20T06:47:25.809Z,31.94
2023-08-20T06:49:52.285Z,32.01
2023-08-20T06:52:18.802Z,32.07
2023-08-20T06:54:45.324Z,32.15
2023-08-20T06:57:11.842Z,32.22
2023-08-20T06:59:38.322Z,32.27
2023-08-20T07:02:04.850Z,32.36
2023-08-20T07:04:31.349Z,32.39
2023-08-20T07:06:57.769Z,32.46
2023-08-20T07:09:24.250Z,32.52
2023-08-20T07:11:50.846Z,32.56
2023-08-20T07:14:17.425Z,32.62
2023-08-20T07:16:43.930Z,32.67
2023-08-20T07:19:10.409Z,32.73
2023-08-20T07:21:36.811Z,32.78
2023-08-20T07:24:03.246Z,32.81
2023-08-20T07:26:29.689Z,32.88
2023-08-20T07:28:56.288Z,32.91
2023-08-20T07:31:22.805Z,32.77
2023-08-20T07:33:49.273Z,32.60
2023-08-20T07:36:15.689Z,32.65
2023-08-20T07:38:42.145Z,32.74
2023-08-20T07:41:08.559Z,32.85
2023-08-20T07:43:35.053Z,32.94
2023-08-20T07:46:01.552Z,33.02
2023-08-20T07:48:28.127Z,33.10
2023-08-20T07:50:54.567Z,33.32
2023-08-20T07:53:20.991Z,33.28
2023-08-20T07:55:47.488Z,33.33
2023-08-20T07:58:13.874Z,33.57
2023-08-20T08:00:40.290Z,33.65
2023-08-20T08:03:06.813Z,33.69
2023-08-20T08:05:33.294Z,33.62
2023-08-20T08:07:59.704Z,33.86
2023-08-20T08:10:26.090Z,33.92
2023-08-20T08:12:52.520Z,33.80
2023-08-20T08:15:18.954Z,33.95
2023-08-20T08:17:45.419Z,34.06
2023-08-20T08:20:11.849Z,34.14
2023-08-20T08:22:38.290Z,34.20
2023-08-20T08:25:04.728Z,34.26
2023-08-20T08:27:31.154Z,34.27
2023-08-20T08:29:57.560Z,34.34
2023-08-20T08:32:23.965Z,34.46
2023-08-20T08:34:50.389Z,34.45
2023-08-20T08:37:16.786Z,34.32
2023-08-20T08:39:43.233Z,34.34
2023-08-20T08:42:09.627Z,34.37
2023-08-20T08:44:36.122Z,34.41
2023-08-20T08:47:02.558Z,34.46
2023-08-20T08:49:28.988Z,34.50
2023-08-20T08:51:55.408Z,34.55
2023-08-20T08:54:21.847Z,34.62
2023-08-20T08:56:48.250Z,34.67
2023-08-20T08:59:14.880Z,34.73
2023-08-20T09:01:41.256Z,34.78
2023-08-20T09:04:07.668Z,34.84
2023-08-20T09:06:34.065Z,34.89
2023-08-20T09:09:00.501Z,34.95
2023-08-20T09:11:26.924Z,35.02
2023-08-20T09:13:53.309Z,35.07
2023-08-20T09:16:19.764Z,35.13
2023-08-20T09:18:46.242Z,35.19
2023-08-20T09:21:12.677Z,35.24
2023-08-20T09:23:39.136Z,35.31
2023-08-20T09:26:05.590Z,35.35
2023-08-20T09:28:31.998Z,35.41
2023-08-20T09:30:58.453Z,35.48
2023-08-20T09:33:24.905Z,35.55
2023-08-20T09:35:51.359Z,35.60
2023-08-20T09:38:17.851Z,35.67
2023-08-20T09:40:44.267Z,35.72
2023-08-20T09:43:10.957Z,35.81
2023-08-20T09:45:37.397Z,35.87
2023-08-20T09:48:03.871Z,35.92
2023-08-20T09:50:30.321Z,35.98
2023-08-20T09:52:56.744Z,36.03
2023-08-20T09:55:23.142Z,36.08
2023-08-20T09:57:49.556Z,36.15
2023-08-20T10:00:15.974Z,36.20
2023-08-20T10:02:42.449Z,36.27
2023-08-20T10:05:08.879Z,36.34
2023-08-20T10:07:35.597Z,36.39
2023-08-20T10:10:02.150Z,36.47
2023-08-20T10:12:28.562Z,36.53
2023-08-20T10:14:54.949Z,36.61
2023-08-20T10:17:21.496Z,36.67
2023-08-20T10:19:48.021Z,36.72
2023-08-20T10:22:14.423Z,36.78
2023-08-20T10:24:40.810Z,36.85
2023-08-20T10:27:07.257Z,36.90
2023-08-20T10:29:33.687Z,36.95
2023-08-20T10:32:00.143Z,37.00
2023-08-20T10:34:26.553Z,37.06
2023-08-20T10:36:53.102Z,37.11
2023-08-20T10:39:19.483Z,37.19
2023-08-20T10:41:45.892Z,37.24
2023-08-20T10:44:12.289Z,37.30
2023-08-20T10:46:38.702Z,37.37
2023-08-20T10:49:05.113Z,37.42
2023-08-20T10:51:31.524Z,37.47
2023-08-20T10:53:57.964Z,37.53
2023-08-20T10:56:24.355Z,37.59
2023-08-20T10:58:50.754Z,37.63
2023-08-20T11:01:17.229Z,37.71
2023-08-20T11:03:43.727Z,37.74
2023-08-20T11:06:10.196Z,37.78
2023-08-20T11:08:36.650Z,37.86
2023-08-20T11:11:03.038Z,37.92
2023-08-20T11:13:29.476Z,37.97
2023-08-20T11:15:55.881Z,38.03
2023-08-20T11:18:22.349Z,38.09
2023-08-20T11:20:48.809Z,38.15
2023-08-20T11:23:15.228Z,38.19
2023-08-20T11:25:41.612Z,38.24
2023-08-20T11:28:08.139Z,38.29
2023-08-20T11:30:34.638Z,38.34
2023-08-20T11:33:01.339Z,38.39
2023-08-20T11:35:28.000Z,38.44
2023-08-20T11:37:54.554Z,38.50
2023-08-20T11:40:21.193Z,38.55
2023-08-20T11:42:47.747Z,38.61
2023-08-20T11:45:14.341Z,38.65
2023-08-20T11:47:40.833Z,38.70
2023-08-20T11:50:07.318Z,38.75
2023-08-20T11:52:33.930Z,38.81
2023-08-20T11:55:01.203Z,38.88
2023-08-20T11:57:27.774Z,38.94
2023-08-20T11:59:54.264Z,38.99
2023-08-20T12:02:31.230Z,39.05
2023-08-20T12:05:05.130Z,39.11
2023-08-20T12:07:31.722Z,39.16
2023-08-20T12:09:58.349Z,39.48
2023-08-20T12:12:24.856Z,39.35
2023-08-20T12:14:51.374Z,39.34
2023-08-20T12:17:17.857Z,39.36
2023-08-20T12:19:44.259Z,39.41
2023-08-20T12:22:10.781Z,39.45
2023-08-20T12:24:38.339Z,39.51
2023-08-20T12:27:06.064Z,39.54
2023-08-20T12:29:32.470Z,39.58
2023-08-20T12:31:58.898Z,39.62
2023-08-20T12:34:25.301Z,39.65
2023-08-20T12:36:51.884Z,39.68
2023-08-20T12:39:19.466Z,39.71
2023-08-20T12:41:45.898Z,40.02
2023-08-20T12:44:12.263Z,39.81
2023-08-20T12:46:38.740Z,39.84
2023-08-20T12:49:05.168Z,39.87
2023-08-20T12:51:31.618Z,40.07
2023-08-20T12:53:58.022Z,39.95
2023-08-20T12:56:24.454Z,39.98
2023-08-20T12:58:50.871Z,40.01
2023-08-20T13:01:17.345Z,40.04
2023-08-20T13:03:43.819Z,40.08
2023-08-20T13:06:10.304Z,40.32
2023-08-20T13:08:36.704Z,40.22
2023-08-20T13:11:03.248Z,40.22
2023-08-20T13:13:29.664Z,40.22
2023-08-20T13:15:56.122Z,40.24
2023-08-20T13:18:22.670Z,40.29
2023-08-20T13:20:49.097Z,40.31
2023-08-20T13:23:15.618Z,40.88
2023-08-20T13:25:42.077Z,41.01
2023-08-20T13:28:08.518Z,41.08
2023-08-20T13:30:34.950Z,41.08
2023-08-20T13:33:01.394Z,41.10
2023-08-20T13:35:27.826Z,41.18
2023-08-20T13:37:54.227Z,41.17
2023-08-20T13:40:20.663Z,41.19
2023-08-20T13:42:47.161Z,41.18
2023-08-20T13:45:13.604Z,41.21
2023-08-20T13:47:40.029Z,41.28
2023-08-20T13:50:06.668Z,40.86
2023-08-20T13:52:33.106Z,40.81
2023-08-20T13:54:59.513Z,40.81
2023-08-20T13:57:25.922Z,40.81
2023-08-20T13:59:52.351Z,40.83
2023-08-20T14:02:18.781Z,40.85
2023-08-20T14:04:45.234Z,40.88
2023-08-20T14:07:11.770Z,40.91
2023-08-20T14:09:38.201Z,40.93
2023-08-20T14:12:04.597Z,40.95
2023-08-20T14:14:31.016Z,40.99
2023-08-20T14:16:57.420Z,41.01
2023-08-20T14:19:23.843Z,41.33
2023-08-20T14:21:50.274Z,41.46
2023-08-20T14:24:19.051Z,41.53
2023-08-20T14:26:45.862Z,41.42
2023-08-20T14:29:12.289Z,41.42
2023-08-20T14:31:38.783Z,41.47
2023-08-20T14:34:05.253Z,41.54
2023-08-20T14:36:31.686Z,41.59
2023-08-20T14:38:58.096Z,41.64
2023-08-20T14:41:24.543Z,41.51
2023-08-20T14:43:50.986Z,41.41
2023-08-20T14:46:17.480Z,41.48
2023-08-20T14:48:43.923Z,41.68
2023-08-20T14:51:10.397Z,41.83
2023-08-20T14:53:36.812Z,41.88
2023-08-20T14:56:03.241Z,41.90
2023-08-20T14:58:32.568Z,41.86
2023-08-20T15:00:59.457Z,41.92
2023-08-20T15:03:25.931Z,41.95
2023-08-20T15:05:52.661Z,42.01
2023-08-20T15:08:19.213Z,41.82
2023-08-20T15:10:45.868Z,41.79
2023-08-20T15:13:12.427Z,41.78
2023-08-20T15:15:39.042Z,41.75
2023-08-20T15:18:05.683Z,41.77
2023-08-20T15:20:32.290Z,41.76
2023-08-20T15:22:58.718Z,41.79
2023-08-20T15:25:25.117Z,41.81
2023-08-20T15:27:51.536Z,41.86
2023-08-20T15:30:17.970Z,41.90
2023-08-20T15:32:44.397Z,41.92
2023-08-20T15:35:10.823Z,41.97
2023-08-20T15:37:37.490Z,42.02
2023-08-20T15:40:04.190Z,42.01
2023-08-20T15:42:30.604Z,42.05
2023-08-20T15:44:57.029Z,42.15
2023-08-20T15:47:23.513Z,42.18
2023-08-20T15:49:49.937Z,42.07
2023-08-20T15:52:16.324Z,42.05
2023-08-20T15:54:42.750Z,42.10
2023-08-20T15:57:09.150Z,41.96
2023-08-20T15:59:35.562Z,41.96
2023-08-20T16:02:02.024Z,41.99
2023-08-20T16:04:28.528Z,42.09
2023-08-20T16:06:54.938Z,42.03
2023-08-20T16:09:30.015Z,42.03
2023-08-20T16:12:04.073Z,42.03
2023-08-20T16:14:30.478Z,42.41
2023-08-20T16:16:56.870Z,42.56
2023-08-20T16:19:23.350Z,42.74
2023-08-20T16:21:49.778Z,42.66
2023-08-20T16:24:16.172Z,42.67
2023-08-20T16:26:42.685Z,42.68
2023-08-20T16:29:09.118Z,42.69
2023-08-20T16:31:35.546Z,42.70
2023-08-20T16:34:01.941Z,42.75
2023-08-20T16:36:28.370Z,42.72
2023-08-20T16:38:54.734Z,42.70
2023-08-20T16:41:21.153Z,42.75
2023-08-20T16:43:47.713Z,42.75
2023-08-20T16:46:14.161Z,42.71
2023-08-20T16:48:40.619Z,42.76
2023-08-20T16:51:07.034Z,42.72
2023-08-20T16:53:33.464Z,42.69
2023-08-20T16:55:59.870Z,42.68
2023-08-20T16:58:26.394Z,42.69
2023-08-20T17:00:52.875Z,42.68
2023-08-20T17:03:19.497Z,42.66
2023-08-20T17:05:46.046Z,42.67
2023-08-20T17:08:12.458Z,42.67
2023-08-20T17:10:38.889Z,42.67
2023-08-20T17:13:05.592Z,42.66
2023-08-20T17:15:32.441Z,42.66
2023-08-20T17:18:00.004Z,42.63
2023-08-20T17:20:26.566Z,42.62
2023-08-20T17:22:53.001Z,42.57
2023-08-20T17:25:19.401Z,42.58
2023-08-20T17:27:45.809Z,42.56
2023-08-20T17:30:12.250Z,42.53
2023-08-20T17:32:38.908Z,42.50
2023-08-20T17:35:05.588Z,42.48
2023-08-20T17:37:32.001Z,42.50
2023-08-20T17:39:58.424Z,42.45
2023-08-20T17:42:24.832Z,42.43
2023-08-20T17:44:51.288Z,42.40
2023-08-20T17:47:17.686Z,42.39
2023-08-20T17:49:44.083Z,42.35
2023-08-20T17:52:10.491Z,42.33
2023-08-20T17:54:36.883Z,42.27
2023-08-20T17:57:03.309Z,42.23
2023-08-20T17:59:29.709Z,42.21
2023-08-20T18:01:56.201Z,42.17
2023-08-20T18:04:22.657Z,42.15
2023-08-20T18:06:49.164Z,42.09
2023-08-20T18:09:15.599Z,42.06
2023-08-20T18:11:42.002Z,41.98
2023-08-20T18:14:08.443Z,41.94
2023-08-20T18:16:34.859Z,41.88
2023-08-20T18:19:01.325Z,41.84
2023-08-20T18:21:27.724Z,41.77
2023-08-20T18:23:54.162Z,41.73
2023-08-20T18:26:20.565Z,41.71
2023-08-20T18:28:46.997Z,41.68
2023-08-20T18:31:13.459Z,41.65
2023-08-20T18:33:39.925Z,41.54
2023-08-20T18:36:06.358Z,41.51
2023-08-20T18:38:32.818Z,41.54
2023-08-20T18:40:59.257Z,41.46
2023-08-20T18:43:25.699Z,41.54
2023-08-20T18:45:52.197Z,41.50
2023-08-20T18:48:18.765Z,41.37
2023-08-20T18:50:45.203Z,41.30
2023-08-20T18:53:11.638Z,41.17
2023-08-20T18:55:38.042Z,41.11
2023-08-20T18:58:04.428Z,41.07
2023-08-20T19:00:30.982Z,41.02
2023-08-20T19:02:57.562Z,40.96
2023-08-20T19:05:24.009Z,40.91
2023-08-20T19:07:50.410Z,40.85
2023-08-20T19:10:16.825Z,40.76
2023-08-20T19:12:43.251Z,40.70
2023-08-20T19:15:09.662Z,40.63
2023-08-20T19:17:36.082Z,40.64
2023-08-20T19:20:02.533Z,40.62
2023-08-20T19:22:28.933Z,40.58
2023-08-20T19:24:55.350Z,40.53
2023-08-20T19:27:21.742Z,40.47
2023-08-20T19:29:48.181Z,40.38
2023-08-20T19:32:14.636Z,40.33
2023-08-20T19:34:41.072Z,40.26
2023-08-20T19:37:07.510Z,40.19
2023-08-20T19:39:33.997Z,40.16
2023-08-20T19:42:00.381Z,40.09
2023-08-20T19:44:26.799Z,40.14
2023-08-20T19:46:53.199Z,40.08
2023-08-20T19:49:19.629Z,40.06
2023-08-20T19:51:46.026Z,40.01
2023-08-20T19:54:12.420Z,39.97
2023-08-20T19:56:38.836Z,39.90
2023-08-20T19:59:05.263Z,39.87
2023-08-20T20:01:31.752Z,39.89
2023-08-20T20:03:58.241Z,39.80
2023-08-20T20:06:24.658Z,39.79
2023-08-20T20:08:51.101Z,39.70
2023-08-20T20:11:17.495Z,39.72
2023-08-20T20:13:43.923Z,39.59
2023-08-20T20:16:10.287Z,39.55
2023-08-20T20:18:36.711Z,39.48
2023-08-20T20:21:03.429Z,39.41
2023-08-20T20:23:29.893Z,39.35
2023-08-20T20:25:56.355Z,39.30
2023-08-20T20:28:22.748Z,39.26
2023-08-20T20:30:49.226Z,39.21
2023-08-20T20:33:15.705Z,39.16
2023-08-20T20:35:42.148Z,39.12
2023-08-20T20:38:08.555Z,39.04
2023-08-20T20:40:34.986Z,39.02
2023-08-20T20:43:01.413Z,38.99
2023-08-20T20:45:27.823Z,38.96
2023-08-20T20:47:54.342Z,38.90
2023-08-20T20:50:20.867Z,38.81
2023-08-20T20:52:47.258Z,38.70
2023-08-20T20:55:13.677Z,38.68
2023-08-20T20:57:40.098Z,38.66
2023-08-20T21:00:06.500Z,38.61
2023-08-20T21:02:32.998Z,38.55
2023-08-20T21:04:59.552Z,38.51
2023-08-20T21:07:25.963Z,38.47
2023-08-20T21:09:52.442Z,38.45
2023-08-20T21:12:18.840Z,37.99
2023-08-20T21:14:45.278Z,37.90
2023-08-20T21:17:11.648Z,38.11
2023-08-20T21:19:38.063Z,38.09
2023-08-20T21:22:04.460Z,38.02
2023-08-20T21:24:30.900Z,37.83
2023-08-20T21:26:57.309Z,37.78
2023-08-20T21:29:23.735Z,37.69
2023-08-20T21:31:50.148Z,37.62
2023-08-20T21:34:16.543Z,37.57
2023-08-20T21:36:43.062Z,37.50
2023-08-20T21:39:09.572Z,37.48
2023-08-20T21:41:35.959Z,37.43
2023-08-20T21:44:02.374Z,37.38
2023-08-20T21:46:28.811Z,37.35
2023-08-20T21:48:55.284Z,37.33
2023-08-20T21:51:21.709Z,37.31
2023-08-20T21:53:48.083Z,37.26
2023-08-20T21:56:14.576Z,37.22
2023-08-20T21:58:40.986Z,37.17
2023-08-20T22:01:07.470Z,37.20
2023-08-20T22:03:34.160Z,37.28
2023-08-20T22:06:00.745Z,37.27
2023-08-20T22:08:27.171Z,37.30
2023-08-20T22:10:53.597Z,37.29
2023-08-20T22:13:20.002Z,37.22
2023-08-20T22:15:46.469Z,37.21
2023-08-20T22:18:12.882Z,37.05
2023-08-20T22:20:39.327Z,36.99
2023-08-20T22:23:05.736Z,36.99
2023-08-20T22:25:32.164Z,36.94
2023-08-20T22:27:58.604Z,36.86
2023-08-20T22:30:25.051Z,36.91
2023-08-20T22:32:51.482Z,36.88
2023-08-20T22:35:17.955Z,36.85
2023-08-20T22:37:44.405Z,36.81
2023-08-20T22:40:10.837Z,36.55
2023-08-20T22:42:37.453Z,36.49
2023-08-20T22:45:04.141Z,36.42
2023-08-20T22:47:30.540Z,36.37
2023-08-20T22:49:56.975Z,36.36
2023-08-20T22:52:23.343Z,36.32
2023-08-20T22:54:49.763Z,36.28
2023-08-20T22:57:16.190Z,36.19
2023-08-20T22:59:42.618Z,36.21
2023-08-20T23:02:09.033Z,36.35
2023-08-20T23:04:35.435Z,36.18
2023-08-20T23:07:01.866Z,36.25
2023-08-20T23:09:28.272Z,36.16
2023-08-20T23:11:54.771Z,36.02
2023-08-20T23:14:21.177Z,36.13
2023-08-20T23:16:47.642Z,36.01
2023-08-20T23:19:14.071Z,36.06
2023-08-20T23:21:40.465Z,35.98
2023-08-20T23:24:06.913Z,35.96
2023-08-20T23:26:33.373Z,35.88
2023-08-20T23:29:00.127Z,35.91
2023-08-20T23:31:26.598Z,35.95
2023-08-20T23:33:53.032Z,35.94
2023-08-20T23:36:19.435Z,35.84
2023-08-20T23:38:45.827Z,35.84
2023-08-20T23:41:12.253Z,35.75
2023-08-20T23:43:38.661Z,35.78
2023-08-20T23:46:05.048Z,35.75
2023-08-20T23:48:31.484Z,35.47
2023-08-20T23:50:57.891Z,35.38
2023-08-20T23:53:24.388Z,35.33
2023-08-20T23:55:50.803Z,35.28
2023-08-20T23:58:17.196Z,35.27
